Berge Kinabalu — 2GWN3 — position and weather

sailwx.info

Track history (hours):
 
Tides and Currents Weather Stations Pressure Air Temp Water Temp Dewpoint Dewpoint Depression Visibility Wind Speed Wind Dir Waves Ship Positions

Berge Kinabalu

Last reported at 2018-Jun-18 17:58 UTC. Time now 2018-Jun-21 04:53 UTC.
Position N 09°11' W 079°52'.

Length 289 m; draft 10 m.

Type: Cargo ship. MMSI: 235101105.

Date/timePositionNaut miles runAvg speedWind from/ knotsBaromVisibWave heightAir tempDewpointWater temp
2018-Jun-18 17:58N 09°11' W 079°52'4 8.0
2018-Jun-18 17:31N 09°13' W 079°55'2 4.2
2018-Jun-18 17:00N 09°15' W 079°55'0 0.1
2018-Jun-18 16:29N 09°15' W 079°55'0 0.0
2018-Jun-18 15:56N 09°15' W 079°55'0 0.0
2018-Jun-18 15:29N 09°15' W 079°55'0 0.1
2018-Jun-18 14:59N 09°15' W 079°55'0 0.1
2018-Jun-18 14:29N 09°15' W 079°55'0 0.1
2018-Jun-18 13:56N 09°15' W 079°55'0 0.1
2018-Jun-18 13:29N 09°15' W 079°55'0 0.1
2018-Jun-18 12:59N 09°15' W 079°55'0 0.1
2018-Jun-18 12:23N 09°15' W 079°55'0 0.7
2018-Jun-18 12:01N 09°15' W 079°55'1 2.0
2018-Jun-18 11:30N 09°16' W 079°55'0 0.6
2018-Jun-18 11:01N 09°16' W 079°55'0 0.3
2018-Jun-18 10:31N 09°16' W 079°55'0 0.2
2018-Jun-18 10:01N 09°16' W 079°55'0 0.5
2018-Jun-18 09:29N 09°17' W 079°55'0 0.0
2018-Jun-18 09:01N 09°17' W 079°55'0 0.4
2018-Jun-18 08:28N 09°17' W 079°55'1 1.0
2018-Jun-18 07:55N 09°17' W 079°55'1 2.7
2018-Jun-18 07:30N 09°18' W 079°55'2 4.7
2018-Jun-18 07:01N 09°21' W 079°55'2 5.0
2018-Jun-18 06:30N 09°23' W 079°55'2 4.8
2018-Jun-18 06:01N 09°26' W 079°55'2 4.7
2018-Jun-18 05:31N 09°28' W 079°55'1 0.1
2018-Jun-18 01:06N 09°28' W 079°56'0 0.0
2018-Jun-18 00:48N 09°28' W 079°56'0 0.0
2018-Jun-18 00:27N 09°28' W 079°56'0 0.0
2018-Jun-17 23:56N 09°28' W 079°56'0 0.0
2018-Jun-17 23:30N 09°28' W 079°56'0 0.1
2018-Jun-17 23:00N 09°28' W 079°56'0 0.1
2018-Jun-17 22:30N 09°28' W 079°56'0 0.7
2018-Jun-17 22:00N 09°28' W 079°55'2 3.1
2018-Jun-17 21:30N 09°29' W 079°54'  
2018-Jun-12 03:07N 09°35' W 079°47'212.0
2018-Jun-12 02:59N 09°34' W 079°48'612.1
2018-Jun-12 02:30N 09°29' W 079°52'510.9
2018-Jun-12 02:00N 09°25' W 079°55'4 7.7
2018-Jun-12 01:30N 09°21' W 079°55'4 7.9
2018-Jun-12 01:00N 09°17' W 079°55'1 1.4
2018-Jun-12 00:30N 09°16' W 079°55'0 0.5
2018-Jun-12 00:00N 09°16' W 079°55'0 0.0
2018-Jun-11 23:30N 09°16' W 079°55'0 0.5
2018-Jun-11 23:00N 09°16' W 079°55'0 0.3
2018-Jun-11 22:30N 09°16' W 079°55'0 0.7
2018-Jun-11 22:00N 09°15' W 079°55'2 2.8
2018-Jun-11 21:29N 09°14' W 079°55'1 2.1
2018-Jun-11 21:00N 09°13' W 079°56'0 0.7
2018-Jun-11 20:30N 09°13' W 079°56'0 0.3
2018-Jun-11 19:59N 09°13' W 079°56'0 0.1
2018-Jun-11 19:26N 09°13' W 079°56'0 0.0
2018-Jun-11 18:59N 09°13' W 079°56'0 0.0
2018-Jun-11 18:29N 09°13' W 079°56'0 0.0
2018-Jun-11 17:59N 09°13' W 079°56'0 0.0
2018-Jun-11 17:26N 09°13' W 079°56'0 0.0
2018-Jun-11 16:53N 09°13' W 079°56'0 0.1
2018-Jun-11 16:29N 09°13' W 079°56'0 0.1
2018-Jun-11 15:59N 09°13' W 079°56'0 0.2
2018-Jun-11 15:23N 09°13' W 079°56'1 2.9
2018-Jun-11 15:00N 09°13' W 079°55'4 7.3
2018-Jun-11 14:30N 09°11' W 079°52'  
Track history (hours):
 
Tides and Currents Weather Stations Pressure Air Temp Water Temp Dewpoint Dewpoint Depression Visibility Wind Speed Wind Dir Waves Ship Positions

Berge Kinabalu

Last reported at 2018-Jun-18 17:58 UTC. Time now 2018-Jun-21 04:53 UTC.
Position N 09°11' W 079°52'.

Length 289 m; draft 10 m.

Type: Cargo ship. MMSI: 235101105.

Date/timePositionNaut miles runAvg speedWind from/ knotsBaromVisibWave heightAir tempDewpointWater temp
2018-Jun-18 17:58N 09°11' W 079°52'4 8.0
2018-Jun-18 17:31N 09°13' W 079°55'2 4.2
2018-Jun-18 17:00N 09°15' W 079°55'0 0.1
2018-Jun-18 16:29N 09°15' W 079°55'0 0.0
2018-Jun-18 15:56N 09°15' W 079°55'0 0.0
2018-Jun-18 15:29N 09°15' W 079°55'0 0.1
2018-Jun-18 14:59N 09°15' W 079°55'0 0.1
2018-Jun-18 14:29N 09°15' W 079°55'0 0.1
2018-Jun-18 13:56N 09°15' W 079°55'0 0.1
2018-Jun-18 13:29N 09°15' W 079°55'0 0.1
2018-Jun-18 12:59N 09°15' W 079°55'0 0.1
2018-Jun-18 12:23N 09°15' W 079°55'0 0.7
2018-Jun-18 12:01N 09°15' W 079°55'1 2.0
2018-Jun-18 11:30N 09°16' W 079°55'0 0.6
2018-Jun-18 11:01N 09°16' W 079°55'0 0.3
2018-Jun-18 10:31N 09°16' W 079°55'0 0.2
2018-Jun-18 10:01N 09°16' W 079°55'0 0.5
2018-Jun-18 09:29N 09°17' W 079°55'0 0.0
2018-Jun-18 09:01N 09°17' W 079°55'0 0.4
2018-Jun-18 08:28N 09°17' W 079°55'1 1.0
2018-Jun-18 07:55N 09°17' W 079°55'1 2.7
2018-Jun-18 07:30N 09°18' W 079°55'2 4.7
2018-Jun-18 07:01N 09°21' W 079°55'2 5.0
2018-Jun-18 06:30N 09°23' W 079°55'2 4.8
2018-Jun-18 06:01N 09°26' W 079°55'2 4.7
2018-Jun-18 05:31N 09°28' W 079°55'1 0.1
2018-Jun-18 01:06N 09°28' W 079°56'0 0.0
2018-Jun-18 00:48N 09°28' W 079°56'0 0.0
2018-Jun-18 00:27N 09°28' W 079°56'0 0.0
2018-Jun-17 23:56N 09°28' W 079°56'0 0.0
2018-Jun-17 23:30N 09°28' W 079°56'0 0.1
2018-Jun-17 23:00N 09°28' W 079°56'0 0.1
2018-Jun-17 22:30N 09°28' W 079°56'0 0.7
2018-Jun-17 22:00N 09°28' W 079°55'2 3.1
2018-Jun-17 21:30N 09°29' W 079°54'  
2018-Jun-12 03:07N 09°35' W 079°47'212.0
2018-Jun-12 02:59N 09°34' W 079°48'612.1
2018-Jun-12 02:30N 09°29' W 079°52'510.9
2018-Jun-12 02:00N 09°25' W 079°55'4 7.7
2018-Jun-12 01:30N 09°21' W 079°55'4 7.9
2018-Jun-12 01:00N 09°17' W 079°55'1 1.4
2018-Jun-12 00:30N 09°16' W 079°55'0 0.5
2018-Jun-12 00:00N 09°16' W 079°55'0 0.0
2018-Jun-11 23:30N 09°16' W 079°55'0 0.5
2018-Jun-11 23:00N 09°16' W 079°55'0 0.3
2018-Jun-11 22:30N 09°16' W 079°55'0 0.7
2018-Jun-11 22:00N 09°15' W 079°55'2 2.8
2018-Jun-11 21:29N 09°14' W 079°55'1 2.1
2018-Jun-11 21:00N 09°13' W 079°56'0 0.7
2018-Jun-11 20:30N 09°13' W 079°56'0 0.3
2018-Jun-11 19:59N 09°13' W 079°56'0 0.1
2018-Jun-11 19:26N 09°13' W 079°56'0 0.0
2018-Jun-11 18:59N 09°13' W 079°56'0 0.0
2018-Jun-11 18:29N 09°13' W 079°56'0 0.0
2018-Jun-11 17:59N 09°13' W 079°56'0 0.0
2018-Jun-11 17:26N 09°13' W 079°56'0 0.0
2018-Jun-11 16:53N 09°13' W 079°56'0 0.1
2018-Jun-11 16:29N 09°13' W 079°56'0 0.1
2018-Jun-11 15:59N 09°13' W 079°56'0 0.2
2018-Jun-11 15:23N 09°13' W 079°56'1 2.9
2018-Jun-11 15:00N 09°13' W 079°55'4 7.3
2018-Jun-11 14:30N 09°11' W 079°52'  

Dump ship's entire track history